sensor_id;sensor_type;location;lat;lon;timestamp;temperature;humidity
50816;DHT22;39717;47.324;8.788;2023-04-25T08:48:46;12.80;39.10
50816;DHT22;39717;47.324;8.788;2023-04-25T08:51:22;7.10;99.90
50816;DHT22;39717;47.324;8.788;2023-04-25T08:53:51;7.00;99.90
50816;DHT22;39717;47.324;8.788;2023-04-25T08:56:18;6.90;99.90
50816;DHT22;39717;47.324;8.788;2023-04-25T08:58:48;6.90;99.90
50816;DHT22;39717;47.324;8.788;2023-04-25T09:01:15;6.90;99.90
50816;DHT22;39717;47.324;8.788;2023-04-25T09:03:40;6.90;99.90
50816;DHT22;39717;47.324;8.788;2023-04-25T09:06:09;6.90;99.90
50816;DHT22;39717;47.324;8.788;2023-04-25T09:08:37;7.10;99.90
50816;DHT22;39717;47.324;8.788;2023-04-25T09:11:03;7.10;99.90
50816;DHT22;39717;47.324;8.788;2023-04-25T09:13:29;7.10;99.90
50816;DHT22;39717;47.324;8.788;2023-04-25T10:40:24;7.10;99.90
50816;DHT22;39717;47.324;8.788;2023-04-25T10:42:52;8.10;99.90
50816;DHT22;39717;47.324;8.788;2023-04-25T10:45:20;8.10;99.90
50816;DHT22;39717;47.324;8.788;2023-04-25T10:47:46;8.00;99.90
50816;DHT22;39717;47.324;8.788;2023-04-25T10:50:14;7.80;99.90
50816;DHT22;39717;47.324;8.788;2023-04-25T10:52:43;7.50;99.90
50816;DHT22;39717;47.324;8.788;2023-04-25T10:55:10;7.30;99.90
50816;DHT22;39717;47.324;8.788;2023-04-25T10:57:41;7.20;99.90
50816;DHT22;39717;47.324;8.788;2023-04-25T11:03:01;7.60;99.90
50816;DHT22;39717;47.324;8.788;2023-04-25T11:05:35;7.60;99.90
50816;DHT22;39717;47.324;8.788;2023-04-25T11:08:02;7.70;99.90
50816;DHT22;39717;47.324;8.788;2023-04-25T11:10:33;7.80;99.90
50816;DHT22;39717;47.324;8.788;2023-04-25T11:13:01;8.10;99.90
50816;DHT22;39717;47.324;8.788;2023-04-25T11:15:27;8.60;99.90
50816;DHT22;39717;47.324;8.788;2023-04-25T13:11:23;9.10;99.90
50816;DHT22;39717;47.324;8.788;2023-04-25T13:13:49;7.30;98.90
50816;DHT22;39717;47.324;8.788;2023-04-25T13:16:15;7.00;99.90
50816;DHT22;39717;47.324;8.788;2023-04-25T13:18:41;7.30;97.30
50816;DHT22;39717;47.324;8.788;2023-04-25T13:21:06;7.20;96.70
50816;DHT22;39717;47.324;8.788;2023-04-25T13:23:34;7.00;99.90
50816;DHT22;39717;47.324;8.788;2023-04-25T13:25:59;7.00;99.90
50816;DHT22;39717;47.324;8.788;2023-04-25T13:28:27;7.00;99.90
50816;DHT22;39717;47.324;8.788;2023-04-25T13:30:53;7.10;99.90
50816;DHT22;39717;47.324;8.788;2023-04-25T13:33:19;7.20;99.90
50816;DHT22;39717;47.324;8.788;2023-04-25T13:35:47;7.50;99.90
50816;DHT22;39717;47.324;8.788;2023-04-25T13:38:21;7.90;99.90
50816;DHT22;39717;47.324;8.788;2023-04-25T13:40:48;8.60;99.90
50816;DHT22;39717;47.324;8.788;2023-04-25T13:48:06;8.90;99.20
50816;DHT22;39717;47.324;8.788;2023-04-25T14:10:04;9.30;84.70
50816;DHT22;39717;47.324;8.788;2023-04-25T14:27:08;9.30;56.60
50816;DHT22;39717;47.324;8.788;2023-04-25T14:29:34;9.10;55.50
50816;DHT22;39717;47.324;8.788;2023-04-25T14:32:00;9.00;55.30
50816;DHT22;39717;47.324;8.788;2023-04-25T14:34:26;9.00;57.10
50816;DHT22;39717;47.324;8.788;2023-04-25T14:36:52;9.10;52.70
50816;DHT22;39717;47.324;8.788;2023-04-25T14:39:18;9.00;56.00
50816;DHT22;39717;47.324;8.788;2023-04-25T14:41:44;8.80;55.20
50816;DHT22;39717;47.324;8.788;2023-04-25T14:51:29;8.70;73.80
50816;DHT22;39717;47.324;8.788;2023-04-25T14:53:56;7.60;99.90
50816;DHT22;39717;47.324;8.788;2023-04-25T16:21:59;7.40;99.90
50816;DHT22;39717;47.324;8.788;2023-04-25T16:24:26;6.50;99.90
50816;DHT22;39717;47.324;8.788;2023-04-25T16:26:52;6.50;99.90
50816;DHT22;39717;47.324;8.788;2023-04-25T16:29:18;6.50;99.90
50816;DHT22;39717;47.324;8.788;2023-04-25T16:31:43;6.60;99.90
50816;DHT22;39717;47.324;8.788;2023-04-25T16:34:11;6.80;99.90
50816;DHT22;39717;47.324;8.788;2023-04-25T16:36:37;6.90;99.90
50816;DHT22;39717;47.324;8.788;2023-04-25T16:39:03;7.00;99.90
50816;DHT22;39717;47.324;8.788;2023-04-25T16:41:29;7.00;99.90
50816;DHT22;39717;47.324;8.788;2023-04-25T16:43:54;7.00;99.90
50816;DHT22;39717;47.324;8.788;2023-04-25T16:46:20;7.00;99.90
50816;DHT22;39717;47.324;8.788;2023-04-25T16:48:48;7.20;99.90
50816;DHT22;39717;47.324;8.788;2023-04-25T16:51:14;7.20;99.90
50816;DHT22;39717;47.324;8.788;2023-04-25T16:53:41;7.30;99.90
50816;DHT22;39717;47.324;8.788;2023-04-25T16:56:07;7.30;99.90
50816;DHT22;39717;47.324;8.788;2023-04-25T16:58:34;7.40;99.90
50816;DHT22;39717;47.324;8.788;2023-04-25T17:01:00;7.50;99.90
50816;DHT22;39717;47.324;8.788;2023-04-25T17:03:26;7.40;99.90
50816;DHT22;39717;47.324;8.788;2023-04-25T17:05:54;7.50;99.90
50816;DHT22;39717;47.324;8.788;2023-04-25T17:08:26;7.50;99.90
50816;DHT22;39717;47.324;8.788;2023-04-25T17:10:53;7.50;99.90
50816;DHT22;39717;47.324;8.788;2023-04-25T17:13:19;7.50;99.90
50816;DHT22;39717;47.324;8.788;2023-04-25T17:15:44;7.50;99.90
50816;DHT22;39717;47.324;8.788;2023-04-25T17:18:10;7.40;99.90
50816;DHT22;39717;47.324;8.788;2023-04-25T17:20:37;7.40;99.90
50816;DHT22;39717;47.324;8.788;2023-04-25T17:23:02;7.30;99.90
50816;DHT22;39717;47.324;8.788;2023-04-25T17:25:29;7.30;99.90
50816;DHT22;39717;47.324;8.788;2023-04-25T17:27:55;7.20;99.90
50816;DHT22;39717;47.324;8.788;2023-04-25T17:30:20;7.20;99.90
50816;DHT22;39717;47.324;8.788;2023-04-25T17:32:47;7.10;99.90
50816;DHT22;39717;47.324;8.788;2023-04-25T17:35:12;7.10;99.90
50816;DHT22;39717;47.324;8.788;2023-04-25T17:37:40;7.00;99.90
50816;DHT22;39717;47.324;8.788;2023-04-25T17:40:07;7.00;99.90
50816;DHT22;39717;47.324;8.788;2023-04-25T17:42:37;7.00;99.90
50816;DHT22;39717;47.324;8.788;2023-04-25T17:45:08;6.90;99.90
50816;DHT22;39717;47.324;8.788;2023-04-25T17:47:37;6.80;99.90
50816;DHT22;39717;47.324;8.788;2023-04-25T17:50:06;6.80;99.90
50816;DHT22;39717;47.324;8.788;2023-04-25T17:52:33;6.80;99.90
50816;DHT22;39717;47.324;8.788;2023-04-25T17:54:59;6.70;99.90
50816;DHT22;39717;47.324;8.788;2023-04-25T17:57:24;6.60;99.90
50816;DHT22;39717;47.324;8.788;2023-04-25T17:59:51;6.50;99.90
50816;DHT22;39717;47.324;8.788;2023-04-25T18:02:17;6.50;99.90
50816;DHT22;39717;47.324;8.788;2023-04-25T18:04:43;6.50;99.90
50816;DHT22;39717;47.324;8.788;2023-04-25T18:07:09;6.50;99.90
50816;DHT22;39717;47.324;8.788;2023-04-25T18:09:35;6.50;99.90
50816;DHT22;39717;47.324;8.788;2023-04-25T18:12:01;6.40;99.90
50816;DHT22;39717;47.324;8.788;2023-04-25T18:14:28;6.40;99.90
50816;DHT22;39717;47.324;8.788;2023-04-25T18:16:55;6.40;99.90
50816;DHT22;39717;47.324;8.788;2023-04-25T18:19:21;6.30;99.90
50816;DHT22;39717;47.324;8.788;2023-04-25T18:21:49;6.30;99.90
50816;DHT22;39717;47.324;8.788;2023-04-25T18:24:16;6.20;99.90
50816;DHT22;39717;47.324;8.788;2023-04-25T18:26:43;6.10;99.90
50816;DHT22;39717;47.324;8.788;2023-04-25T18:29:11;6.20;99.90
50816;DHT22;39717;47.324;8.788;2023-04-25T18:31:38;6.10;99.90
50816;DHT22;39717;47.324;8.788;2023-04-25T18:34:04;6.20;99.90
50816;DHT22;39717;47.324;8.788;2023-04-25T18:36:30;6.20;99.90
50816;DHT22;39717;47.324;8.788;2023-04-25T18:38:57;6.20;99.90
50816;DHT22;39717;47.324;8.788;2023-04-25T18:41:25;6.20;99.90
50816;DHT22;39717;47.324;8.788;2023-04-25T18:43:55;6.20;99.90
50816;DHT22;39717;47.324;8.788;2023-04-25T18:46:27;6.20;99.90
50816;DHT22;39717;47.324;8.788;2023-04-25T18:48:54;6.20;99.90
50816;DHT22;39717;47.324;8.788;2023-04-25T18:51:23;6.20;99.90
50816;DHT22;39717;47.324;8.788;2023-04-25T18:53:54;6.20;99.90
50816;DHT22;39717;47.324;8.788;2023-04-25T18:56:21;6.20;99.90
50816;DHT22;39717;47.324;8.788;2023-04-25T18:58:49;6.20;99.90
50816;DHT22;39717;47.324;8.788;2023-04-25T19:01:16;6.20;99.90
50816;DHT22;39717;47.324;8.788;2023-04-25T19:03:43;6.10;99.90
50816;DHT22;39717;47.324;8.788;2023-04-25T19:06:09;6.20;99.90
50816;DHT22;39717;47.324;8.788;2023-04-25T19:08:35;6.20;99.90
50816;DHT22;39717;47.324;8.788;2023-04-25T19:11:03;6.10;99.90
50816;DHT22;39717;47.324;8.788;2023-04-25T19:13:29;6.20;99.90
50816;DHT22;39717;47.324;8.788;2023-04-25T19:15:56;6.20;99.90
50816;DHT22;39717;47.324;8.788;2023-04-25T19:18:23;6.10;99.90
50816;DHT22;39717;47.324;8.788;2023-04-25T19:20:49;6.20;99.90
50816;DHT22;39717;47.324;8.788;2023-04-25T19:23:15;6.20;99.90
50816;DHT22;39717;47.324;8.788;2023-04-25T19:25:41;6.20;99.90
50816;DHT22;39717;47.324;8.788;2023-04-25T19:28:07;6.10;99.90
50816;DHT22;39717;47.324;8.788;2023-04-25T19:30:36;6.10;99.90
50816;DHT22;39717;47.324;8.788;2023-04-25T19:33:02;6.00;99.90
50816;DHT22;39717;47.324;8.788;2023-04-25T19:35:28;6.00;99.90
50816;DHT22;39717;47.324;8.788;2023-04-25T19:37:57;5.90;99.90
50816;DHT22;39717;47.324;8.788;2023-04-25T19:40:24;5.90;99.90
50816;DHT22;39717;47.324;8.788;2023-04-25T19:42:50;6.00;99.90
50816;DHT22;39717;47.324;8.788;2023-04-25T19:45:16;6.00;99.90
50816;DHT22;39717;47.324;8.788;2023-04-25T19:47:42;6.00;99.90
50816;DHT22;39717;47.324;8.788;2023-04-25T19:50:09;6.00;99.90
50816;DHT22;39717;47.324;8.788;2023-04-25T19:52:35;6.00;99.90
50816;DHT22;39717;47.324;8.788;2023-04-25T19:55:02;6.00;99.90
50816;DHT22;39717;47.324;8.788;2023-04-25T19:57:33;6.10;99.90
50816;DHT22;39717;47.324;8.788;2023-04-25T20:00:00;6.10;99.90
50816;DHT22;39717;47.324;8.788;2023-04-25T20:02:29;6.10;99.90
50816;DHT22;39717;47.324;8.788;2023-04-25T20:04:54;6.10;99.90
50816;DHT22;39717;47.324;8.788;2023-04-25T20:07:21;6.20;99.90
50816;DHT22;39717;47.324;8.788;2023-04-25T20:09:48;6.20;99.90
50816;DHT22;39717;47.324;8.788;2023-04-25T20:12:15;6.20;99.90
50816;DHT22;39717;47.324;8.788;2023-04-25T20:14:41;6.20;99.90
50816;DHT22;39717;47.324;8.788;2023-04-25T20:17:08;6.20;99.90
50816;DHT22;39717;47.324;8.788;2023-04-25T20:19:37;6.20;99.90
50816;DHT22;39717;47.324;8.788;2023-04-25T20:22:04;6.20;99.90
50816;DHT22;39717;47.324;8.788;2023-04-25T20:24:30;6.20;99.90
50816;DHT22;39717;47.324;8.788;2023-04-25T20:26:56;6.20;99.90
50816;DHT22;39717;47.324;8.788;2023-04-25T20:29:23;6.20;99.90
50816;DHT22;39717;47.324;8.788;2023-04-25T20:31:51;6.20;99.90
50816;DHT22;39717;47.324;8.788;2023-04-25T20:34:18;6.20;99.90
50816;DHT22;39717;47.324;8.788;2023-04-25T20:36:44;6.20;99.90
50816;DHT22;39717;47.324;8.788;2023-04-25T20:39:10;6.20;99.90
50816;DHT22;39717;47.324;8.788;2023-04-25T20:41:36;6.20;99.90
50816;DHT22;39717;47.324;8.788;2023-04-25T20:44:03;6.20;99.90
50816;DHT22;39717;47.324;8.788;2023-04-25T20:46:29;6.20;99.90
50816;DHT22;39717;47.324;8.788;2023-04-25T20:48:55;6.20;99.90
50816;DHT22;39717;47.324;8.788;2023-04-25T20:51:21;6.20;99.90
50816;DHT22;39717;47.324;8.788;2023-04-25T20:53:48;6.20;99.90
50816;DHT22;39717;47.324;8.788;2023-04-25T20:56:13;6.30;99.90
50816;DHT22;39717;47.324;8.788;2023-04-25T20:58:41;6.30;99.90
50816;DHT22;39717;47.324;8.788;2023-04-25T21:01:07;6.30;99.90
50816;DHT22;39717;47.324;8.788;2023-04-25T21:03:33;6.20;99.90
50816;DHT22;39717;47.324;8.788;2023-04-25T21:06:00;6.30;99.90
50816;DHT22;39717;47.324;8.788;2023-04-25T21:08:26;6.30;99.90
50816;DHT22;39717;47.324;8.788;2023-04-25T21:10:52;6.30;99.90
50816;DHT22;39717;47.324;8.788;2023-04-25T21:13:18;6.30;99.90
50816;DHT22;39717;47.324;8.788;2023-04-25T21:15:44;6.30;99.90
50816;DHT22;39717;47.324;8.788;2023-04-25T21:18:10;6.30;99.90
50816;DHT22;39717;47.324;8.788;2023-04-25T21:20:35;6.40;99.90
50816;DHT22;39717;47.324;8.788;2023-04-25T21:23:01;6.40;99.90
50816;DHT22;39717;47.324;8.788;2023-04-25T21:25:28;6.30;99.90
50816;DHT22;39717;47.324;8.788;2023-04-25T21:27:57;6.10;99.90
50816;DHT22;39717;47.324;8.788;2023-04-25T21:30:24;5.90;99.90
50816;DHT22;39717;47.324;8.788;2023-04-25T21:32:51;5.80;99.90
50816;DHT22;39717;47.324;8.788;2023-04-25T21:35:18;5.90;99.90
50816;DHT22;39717;47.324;8.788;2023-04-25T21:37:45;5.80;99.90
50816;DHT22;39717;47.324;8.788;2023-04-25T21:40:12;5.80;99.90
50816;DHT22;39717;47.324;8.788;2023-04-25T21:42:39;5.90;99.90
50816;DHT22;39717;47.324;8.788;2023-04-25T21:45:14;5.90;99.90
50816;DHT22;39717;47.324;8.788;2023-04-25T21:47:40;5.90;99.90
50816;DHT22;39717;47.324;8.788;2023-04-25T21:50:06;5.90;99.90
50816;DHT22;39717;47.324;8.788;2023-04-25T21:52:33;5.80;99.90
50816;DHT22;39717;47.324;8.788;2023-04-25T21:54:59;5.80;99.90
50816;DHT22;39717;47.324;8.788;2023-04-25T21:57:25;5.80;99.90
50816;DHT22;39717;47.324;8.788;2023-04-25T21:59:51;5.80;99.90
50816;DHT22;39717;47.324;8.788;2023-04-25T22:02:18;5.80;99.90
50816;DHT22;39717;47.324;8.788;2023-04-25T22:04:43;5.80;99.90
50816;DHT22;39717;47.324;8.788;2023-04-25T22:07:12;5.80;99.90
50816;DHT22;39717;47.324;8.788;2023-04-25T22:09:39;5.80;99.90
50816;DHT22;39717;47.324;8.788;2023-04-25T22:12:05;5.70;99.90
50816;DHT22;39717;47.324;8.788;2023-04-25T22:14:33;5.80;99.90
50816;DHT22;39717;47.324;8.788;2023-04-25T22:16:59;5.80;99.90
50816;DHT22;39717;47.324;8.788;2023-04-25T22:19:25;5.80;99.90
50816;DHT22;39717;47.324;8.788;2023-04-25T22:21:53;5.80;99.90
50816;DHT22;39717;47.324;8.788;2023-04-25T22:24:20;5.80;99.90
50816;DHT22;39717;47.324;8.788;2023-04-25T22:26:47;5.70;99.90
50816;DHT22;39717;47.324;8.788;2023-04-25T22:29:14;5.70;99.90
50816;DHT22;39717;47.324;8.788;2023-04-25T22:31:39;5.80;99.90
50816;DHT22;39717;47.324;8.788;2023-04-25T22:34:06;5.80;99.90
50816;DHT22;39717;47.324;8.788;2023-04-25T22:36:32;5.80;99.90
50816;DHT22;39717;47.324;8.788;2023-04-25T22:38:59;5.80;99.90
50816;DHT22;39717;47.324;8.788;2023-04-25T22:41:25;5.70;99.90
50816;DHT22;39717;47.324;8.788;2023-04-25T22:43:51;5.70;99.90
50816;DHT22;39717;47.324;8.788;2023-04-25T22:46:19;5.70;99.90
50816;DHT22;39717;47.324;8.788;2023-04-25T22:48:46;5.70;99.90
50816;DHT22;39717;47.324;8.788;2023-04-25T22:51:13;5.70;99.90
50816;DHT22;39717;47.324;8.788;2023-04-25T22:53:40;5.60;99.90
50816;DHT22;39717;47.324;8.788;2023-04-25T22:56:07;5.60;99.90
50816;DHT22;39717;47.324;8.788;2023-04-25T22:58:33;5.60;99.90
50816;DHT22;39717;47.324;8.788;2023-04-25T23:00:59;5.60;99.90
50816;DHT22;39717;47.324;8.788;2023-04-25T23:03:25;5.60;99.90
50816;DHT22;39717;47.324;8.788;2023-04-25T23:05:51;5.60;99.90
50816;DHT22;39717;47.324;8.788;2023-04-25T23:08:17;5.60;99.90
50816;DHT22;39717;47.324;8.788;2023-04-25T23:10:43;5.50;99.90
50816;DHT22;39717;47.324;8.788;2023-04-25T23:13:09;5.60;99.90
50816;DHT22;39717;47.324;8.788;2023-04-25T23:15:35;5.60;99.90
50816;DHT22;39717;47.324;8.788;2023-04-25T23:18:02;5.60;99.90
50816;DHT22;39717;47.324;8.788;2023-04-25T23:20:28;5.60;99.90
50816;DHT22;39717;47.324;8.788;2023-04-25T23:22:57;5.50;99.90
50816;DHT22;39717;47.324;8.788;2023-04-25T23:25:23;5.40;99.90
50816;DHT22;39717;47.324;8.788;2023-04-25T23:27:50;5.40;99.90
50816;DHT22;39717;47.324;8.788;2023-04-25T23:30:16;5.30;99.90
50816;DHT22;39717;47.324;8.788;2023-04-25T23:32:42;5.30;99.90
50816;DHT22;39717;47.324;8.788;2023-04-25T23:35:08;5.20;99.90
50816;DHT22;39717;47.324;8.788;2023-04-25T23:37:35;5.20;99.90
50816;DHT22;39717;47.324;8.788;2023-04-25T23:40:03;5.20;99.90
50816;DHT22;39717;47.324;8.788;2023-04-25T23:42:39;5.30;99.90
50816;DHT22;39717;47.324;8.788;2023-04-25T23:45:06;5.20;99.90
50816;DHT22;39717;47.324;8.788;2023-04-25T23:47:33;5.20;99.90
50816;DHT22;39717;47.324;8.788;2023-04-25T23:49:59;5.20;99.90
50816;DHT22;39717;47.324;8.788;2023-04-25T23:52:26;5.20;99.90
50816;DHT22;39717;47.324;8.788;2023-04-25T23:54:53;5.20;99.90
50816;DHT22;39717;47.324;8.788;2023-04-25T23:57:20;5.20;99.90
50816;DHT22;39717;47.324;8.788;2023-04-25T23:59:46;5.10;99.90
